sensor_id;sensor_type;location;lat;lon;timestamp;temperature;humidity
37974;DHT22;23796;51.458;7.000;2023-04-03T00:00:28;3.60;81.50
37974;DHT22;23796;51.458;7.000;2023-04-03T00:02:56;3.60;81.80
37974;DHT22;23796;51.458;7.000;2023-04-03T00:05:22;3.60;81.90
37974;DHT22;23796;51.458;7.000;2023-04-03T00:07:48;3.50;82.10
37974;DHT22;23796;51.458;7.000;2023-04-03T00:10:15;3.40;82.20
37974;DHT22;23796;51.458;7.000;2023-04-03T00:12:43;3.40;82.50
37974;DHT22;23796;51.458;7.000;2023-04-03T00:15:09;3.40;82.50
37974;DHT22;23796;51.458;7.000;2023-04-03T00:17:34;3.40;82.80
37974;DHT22;23796;51.458;7.000;2023-04-03T00:20:00;3.30;83.10
37974;DHT22;23796;51.458;7.000;2023-04-03T00:22:26;3.20;83.40
37974;DHT22;23796;51.458;7.000;2023-04-03T00:24:56;3.20;83.60
37974;DHT22;23796;51.458;7.000;2023-04-03T00:27:22;3.10;83.70
37974;DHT22;23796;51.458;7.000;2023-04-03T00:29:48;3.10;84.00
37974;DHT22;23796;51.458;7.000;2023-04-03T00:32:14;3.00;84.40
37974;DHT22;23796;51.458;7.000;2023-04-03T00:34:39;3.00;84.70
37974;DHT22;23796;51.458;7.000;2023-04-03T00:37:05;3.10;84.30
37974;DHT22;23796;51.458;7.000;2023-04-03T00:39:31;3.10;83.90
37974;DHT22;23796;51.458;7.000;2023-04-03T00:41:57;3.00;84.40
37974;DHT22;23796;51.458;7.000;2023-04-03T00:47:11;3.00;84.50
37974;DHT22;23796;51.458;7.000;2023-04-03T00:49:38;2.90;84.70
37974;DHT22;23796;51.458;7.000;2023-04-03T00:52:06;2.90;84.60
37974;DHT22;23796;51.458;7.000;2023-04-03T00:54:35;3.00;84.40
37974;DHT22;23796;51.458;7.000;2023-04-03T00:57:01;3.10;84.10
37974;DHT22;23796;51.458;7.000;2023-04-03T00:59:34;3.10;83.70
37974;DHT22;23796;51.458;7.000;2023-04-03T01:02:03;3.10;83.50
37974;DHT22;23796;51.458;7.000;2023-04-03T01:07:02;3.10;83.40
37974;DHT22;23796;51.458;7.000;2023-04-03T01:09:33;3.10;83.30
37974;DHT22;23796;51.458;7.000;2023-04-03T01:14:56;3.10;83.30
37974;DHT22;23796;51.458;7.000;2023-04-03T01:17:38;3.10;83.30
37974;DHT22;23796;51.458;7.000;2023-04-03T01:28:08;2.90;83.60
37974;DHT22;23796;51.458;7.000;2023-04-03T01:30:40;2.90;83.70
37974;DHT22;23796;51.458;7.000;2023-04-03T01:33:07;2.90;83.60
37974;DHT22;23796;51.458;7.000;2023-04-03T01:35:34;3.00;83.40
37974;DHT22;23796;51.458;7.000;2023-04-03T01:38:00;2.90;83.40
37974;DHT22;23796;51.458;7.000;2023-04-03T01:40:26;2.90;83.30
37974;DHT22;23796;51.458;7.000;2023-04-03T01:42:53;2.90;83.00
37974;DHT22;23796;51.458;7.000;2023-04-03T01:45:19;2.90;82.80
37974;DHT22;23796;51.458;7.000;2023-04-03T01:47:44;2.80;83.30
37974;DHT22;23796;51.458;7.000;2023-04-03T01:50:10;2.80;83.40
37974;DHT22;23796;51.458;7.000;2023-04-03T01:52:40;2.80;83.50
37974;DHT22;23796;51.458;7.000;2023-04-03T01:55:06;2.80;83.10
37974;DHT22;23796;51.458;7.000;2023-04-03T01:57:32;2.80;83.00
37974;DHT22;23796;51.458;7.000;2023-04-03T01:59:59;2.90;82.50
37974;DHT22;23796;51.458;7.000;2023-04-03T02:02:25;2.80;82.40
37974;DHT22;23796;51.458;7.000;2023-04-03T02:04:53;2.80;82.50
37974;DHT22;23796;51.458;7.000;2023-04-03T02:07:20;2.80;82.40
37974;DHT22;23796;51.458;7.000;2023-04-03T02:09:50;2.70;82.80
37974;DHT22;23796;51.458;7.000;2023-04-03T02:12:18;2.70;82.70
37974;DHT22;23796;51.458;7.000;2023-04-03T02:14:44;2.80;82.20
37974;DHT22;23796;51.458;7.000;2023-04-03T02:17:09;2.80;82.20
37974;DHT22;23796;51.458;7.000;2023-04-03T02:19:35;2.80;81.90
37974;DHT22;23796;51.458;7.000;2023-04-03T02:22:05;2.80;81.80
37974;DHT22;23796;51.458;7.000;2023-04-03T02:24:31;2.70;81.80
37974;DHT22;23796;51.458;7.000;2023-04-03T02:26:57;2.80;81.80
37974;DHT22;23796;51.458;7.000;2023-04-03T02:29:23;2.80;81.50
37974;DHT22;23796;51.458;7.000;2023-04-03T02:31:49;2.80;81.10
37974;DHT22;23796;51.458;7.000;2023-04-03T02:34:15;2.80;81.00
37974;DHT22;23796;51.458;7.000;2023-04-03T02:36:41;2.70;81.10
37974;DHT22;23796;51.458;7.000;2023-04-03T02:39:06;2.80;80.90
37974;DHT22;23796;51.458;7.000;2023-04-03T02:41:32;2.70;80.90
37974;DHT22;23796;51.458;7.000;2023-04-03T02:44:05;2.70;81.00
37974;DHT22;23796;51.458;7.000;2023-04-03T02:46:32;2.70;80.90
37974;DHT22;23796;51.458;7.000;2023-04-03T02:49:00;2.60;81.00
37974;DHT22;23796;51.458;7.000;2023-04-03T02:51:25;2.60;81.00
37974;DHT22;23796;51.458;7.000;2023-04-03T02:53:53;2.60;80.90
37974;DHT22;23796;51.458;7.000;2023-04-03T02:56:19;2.60;80.80
37974;DHT22;23796;51.458;7.000;2023-04-03T02:58:45;2.60;80.70
37974;DHT22;23796;51.458;7.000;2023-04-03T03:01:14;2.70;80.70
37974;DHT22;23796;51.458;7.000;2023-04-03T03:03:39;2.70;80.60
37974;DHT22;23796;51.458;7.000;2023-04-03T03:06:07;2.70;80.40
37974;DHT22;23796;51.458;7.000;2023-04-03T03:08:34;2.60;80.50
37974;DHT22;23796;51.458;7.000;2023-04-03T03:11:02;2.60;80.90
37974;DHT22;23796;51.458;7.000;2023-04-03T03:13:28;2.60;80.70
37974;DHT22;23796;51.458;7.000;2023-04-03T03:15:54;2.60;80.70
37974;DHT22;23796;51.458;7.000;2023-04-03T03:18:25;2.60;80.50
37974;DHT22;23796;51.458;7.000;2023-04-03T03:20:55;2.60;80.60
37974;DHT22;23796;51.458;7.000;2023-04-03T03:23:23;2.60;80.60
37974;DHT22;23796;51.458;7.000;2023-04-03T03:25:49;2.60;80.50
37974;DHT22;23796;51.458;7.000;2023-04-03T03:28:15;2.60;80.50
37974;DHT22;23796;51.458;7.000;2023-04-03T03:30:40;2.50;80.50
37974;DHT22;23796;51.458;7.000;2023-04-03T03:33:06;2.40;80.70
37974;DHT22;23796;51.458;7.000;2023-04-03T03:35:36;2.50;80.70
37974;DHT22;23796;51.458;7.000;2023-04-03T03:38:02;2.50;80.40
37974;DHT22;23796;51.458;7.000;2023-04-03T03:40:27;2.50;80.10
37974;DHT22;23796;51.458;7.000;2023-04-03T03:42:57;2.50;79.80
37974;DHT22;23796;51.458;7.000;2023-04-03T03:45:23;2.50;79.80
37974;DHT22;23796;51.458;7.000;2023-04-03T03:47:49;2.50;79.80
37974;DHT22;23796;51.458;7.000;2023-04-03T03:50:16;2.50;80.00
37974;DHT22;23796;51.458;7.000;2023-04-03T03:52:45;2.50;80.00
37974;DHT22;23796;51.458;7.000;2023-04-03T03:55:11;2.40;80.10
37974;DHT22;23796;51.458;7.000;2023-04-03T03:57:37;2.40;80.00
37974;DHT22;23796;51.458;7.000;2023-04-03T04:00:03;2.40;80.10
37974;DHT22;23796;51.458;7.000;2023-04-03T04:02:29;2.40;80.00
37974;DHT22;23796;51.458;7.000;2023-04-03T04:04:55;2.30;80.20
37974;DHT22;23796;51.458;7.000;2023-04-03T04:07:23;2.30;80.20
37974;DHT22;23796;51.458;7.000;2023-04-03T04:09:49;2.30;80.40
37974;DHT22;23796;51.458;7.000;2023-04-03T04:12:14;2.30;79.90
37974;DHT22;23796;51.458;7.000;2023-04-03T04:14:41;2.40;81.90
37974;DHT22;23796;51.458;7.000;2023-04-03T04:17:12;2.40;80.00
37974;DHT22;23796;51.458;7.000;2023-04-03T04:19:40;2.40;79.60
37974;DHT22;23796;51.458;7.000;2023-04-03T04:22:06;2.30;79.60
37974;DHT22;23796;51.458;7.000;2023-04-03T04:24:34;2.30;79.70
37974;DHT22;23796;51.458;7.000;2023-04-03T04:27:00;2.20;80.10
37974;DHT22;23796;51.458;7.000;2023-04-03T04:29:27;2.10;80.30
37974;DHT22;23796;51.458;7.000;2023-04-03T04:31:55;2.10;80.10
37974;DHT22;23796;51.458;7.000;2023-04-03T04:34:24;2.10;80.20
37974;DHT22;23796;51.458;7.000;2023-04-03T04:36:49;2.00;80.50
37974;DHT22;23796;51.458;7.000;2023-04-03T04:39:15;2.00;80.70
37974;DHT22;23796;51.458;7.000;2023-04-03T04:41:41;1.90;80.90
37974;DHT22;23796;51.458;7.000;2023-04-03T04:44:07;1.90;80.80
37974;DHT22;23796;51.458;7.000;2023-04-03T04:46:32;2.00;80.60
37974;DHT22;23796;51.458;7.000;2023-04-03T04:48:58;2.00;80.50
37974;DHT22;23796;51.458;7.000;2023-04-03T04:51:24;2.00;80.30
37974;DHT22;23796;51.458;7.000;2023-04-03T04:53:50;2.00;80.10
37974;DHT22;23796;51.458;7.000;2023-04-03T04:56:16;2.00;80.20
37974;DHT22;23796;51.458;7.000;2023-04-03T04:58:43;2.00;80.00
37974;DHT22;23796;51.458;7.000;2023-04-03T05:01:12;2.00;80.20
37974;DHT22;23796;51.458;7.000;2023-04-03T05:03:40;1.90;80.30
37974;DHT22;23796;51.458;7.000;2023-04-03T05:06:06;1.90;80.60
37974;DHT22;23796;51.458;7.000;2023-04-03T05:08:31;1.90;80.40
37974;DHT22;23796;51.458;7.000;2023-04-03T05:10:57;1.90;80.30
37974;DHT22;23796;51.458;7.000;2023-04-03T05:13:23;1.90;80.30
37974;DHT22;23796;51.458;7.000;2023-04-03T05:15:48;1.90;80.40
37974;DHT22;23796;51.458;7.000;2023-04-03T05:18:16;1.90;80.20
37974;DHT22;23796;51.458;7.000;2023-04-03T05:20:42;1.90;80.30
37974;DHT22;23796;51.458;7.000;2023-04-03T05:23:11;1.90;80.20
37974;DHT22;23796;51.458;7.000;2023-04-03T05:25:38;2.00;80.20
37974;DHT22;23796;51.458;7.000;2023-04-03T05:28:04;2.00;80.30
37974;DHT22;23796;51.458;7.000;2023-04-03T05:30:30;1.90;80.30
37974;DHT22;23796;51.458;7.000;2023-04-03T05:32:58;1.90;80.50
37974;DHT22;23796;51.458;7.000;2023-04-03T05:35:24;1.90;80.50
37974;DHT22;23796;51.458;7.000;2023-04-03T05:37:49;1.90;80.50
37974;DHT22;23796;51.458;7.000;2023-04-03T05:40:15;2.00;80.50
37974;DHT22;23796;51.458;7.000;2023-04-03T05:42:41;2.00;80.40
37974;DHT22;23796;51.458;7.000;2023-04-03T05:45:09;2.00;80.30
37974;DHT22;23796;51.458;7.000;2023-04-03T05:47:34;2.00;80.00
37974;DHT22;23796;51.458;7.000;2023-04-03T05:50:00;2.10;80.00
37974;DHT22;23796;51.458;7.000;2023-04-03T05:52:26;2.10;79.80
37974;DHT22;23796;51.458;7.000;2023-04-03T05:54:52;2.10;79.80
37974;DHT22;23796;51.458;7.000;2023-04-03T05:57:18;2.10;79.70
37974;DHT22;23796;51.458;7.000;2023-04-03T05:59:45;2.10;79.70
37974;DHT22;23796;51.458;7.000;2023-04-03T06:02:17;2.10;79.60
37974;DHT22;23796;51.458;7.000;2023-04-03T06:04:45;2.10;79.80
37974;DHT22;23796;51.458;7.000;2023-04-03T06:07:19;2.10;79.70
37974;DHT22;23796;51.458;7.000;2023-04-03T06:09:50;2.20;79.60
37974;DHT22;23796;51.458;7.000;2023-04-03T06:12:17;2.20;79.60
37974;DHT22;23796;51.458;7.000;2023-04-03T06:14:43;2.20;79.20
37974;DHT22;23796;51.458;7.000;2023-04-03T06:17:09;2.10;79.40
37974;DHT22;23796;51.458;7.000;2023-04-03T06:19:35;2.20;79.60
37974;DHT22;23796;51.458;7.000;2023-04-03T06:22:01;2.20;79.20
37974;DHT22;23796;51.458;7.000;2023-04-03T06:24:28;2.30;79.10
37974;DHT22;23796;51.458;7.000;2023-04-03T06:26:54;2.30;78.90
37974;DHT22;23796;51.458;7.000;2023-04-03T06:29:24;2.30;78.80
37974;DHT22;23796;51.458;7.000;2023-04-03T06:31:51;2.30;79.30
37974;DHT22;23796;51.458;7.000;2023-04-03T06:34:17;2.40;79.90
37974;DHT22;23796;51.458;7.000;2023-04-03T06:36:43;2.50;79.10
37974;DHT22;23796;51.458;7.000;2023-04-03T06:39:15;2.50;77.80
37974;DHT22;23796;51.458;7.000;2023-04-03T06:41:42;2.50;77.60
37974;DHT22;23796;51.458;7.000;2023-04-03T06:44:07;2.50;77.50
37974;DHT22;23796;51.458;7.000;2023-04-03T06:46:37;2.50;77.60
37974;DHT22;23796;51.458;7.000;2023-04-03T06:49:04;2.50;77.50
37974;DHT22;23796;51.458;7.000;2023-04-03T06:51:30;2.60;77.50
37974;DHT22;23796;51.458;7.000;2023-04-03T06:53:57;2.60;76.80
37974;DHT22;23796;51.458;7.000;2023-04-03T06:56:24;2.60;76.70
37974;DHT22;23796;51.458;7.000;2023-04-03T06:58:51;2.70;76.60
37974;DHT22;23796;51.458;7.000;2023-04-03T07:01:17;2.70;76.30
37974;DHT22;23796;51.458;7.000;2023-04-03T07:03:47;2.70;76.00
37974;DHT22;23796;51.458;7.000;2023-04-03T07:06:15;2.70;75.80
37974;DHT22;23796;51.458;7.000;2023-04-03T07:08:41;2.80;75.70
37974;DHT22;23796;51.458;7.000;2023-04-03T07:11:12;2.90;75.80
37974;DHT22;23796;51.458;7.000;2023-04-03T07:13:40;3.00;75.60
37974;DHT22;23796;51.458;7.000;2023-04-03T07:16:07;3.00;74.80
37974;DHT22;23796;51.458;7.000;2023-04-03T07:18:33;3.00;74.30
37974;DHT22;23796;51.458;7.000;2023-04-03T07:20:59;2.90;74.30
37974;DHT22;23796;51.458;7.000;2023-04-03T07:23:27;2.90;74.60
37974;DHT22;23796;51.458;7.000;2023-04-03T07:25:53;3.00;74.20
37974;DHT22;23796;51.458;7.000;2023-04-03T07:28:22;3.00;73.60
37974;DHT22;23796;51.458;7.000;2023-04-03T07:30:53;3.10;73.40
37974;DHT22;23796;51.458;7.000;2023-04-03T07:33:22;3.20;73.00
37974;DHT22;23796;51.458;7.000;2023-04-03T07:35:47;3.20;72.50
37974;DHT22;23796;51.458;7.000;2023-04-03T07:38:13;3.30;72.70
37974;DHT22;23796;51.458;7.000;2023-04-03T07:40:39;3.40;72.70
37974;DHT22;23796;51.458;7.000;2023-04-03T07:43:08;3.40;72.20
37974;DHT22;23796;51.458;7.000;2023-04-03T07:45:37;3.40;72.50
37974;DHT22;23796;51.458;7.000;2023-04-03T07:48:03;3.50;71.10
37974;DHT22;23796;51.458;7.000;2023-04-03T07:50:29;3.50;71.00
37974;DHT22;23796;51.458;7.000;2023-04-03T07:52:56;3.60;70.60
37974;DHT22;23796;51.458;7.000;2023-04-03T07:55:23;3.60;69.60
37974;DHT22;23796;51.458;7.000;2023-04-03T07:57:51;3.60;70.10
37974;DHT22;23796;51.458;7.000;2023-04-03T08:00:19;3.70;70.30
37974;DHT22;23796;51.458;7.000;2023-04-03T08:02:45;3.80;68.30
37974;DHT22;23796;51.458;7.000;2023-04-03T08:05:16;3.80;68.10
37974;DHT22;23796;51.458;7.000;2023-04-03T08:07:42;3.80;68.20
37974;DHT22;23796;51.458;7.000;2023-04-03T08:10:10;3.90;68.10
37974;DHT22;23796;51.458;7.000;2023-04-03T08:12:38;3.90;68.10
37974;DHT22;23796;51.458;7.000;2023-04-03T08:15:07;4.00;67.60
37974;DHT22;23796;51.458;7.000;2023-04-03T08:17:38;4.10;66.90
37974;DHT22;23796;51.458;7.000;2023-04-03T08:20:09;4.10;65.80
37974;DHT22;23796;51.458;7.000;2023-04-03T08:22:35;4.10;65.70
37974;DHT22;23796;51.458;7.000;2023-04-03T08:25:01;4.20;65.50
37974;DHT22;23796;51.458;7.000;2023-04-03T08:27:27;4.30;65.50
37974;DHT22;23796;51.458;7.000;2023-04-03T08:29:56;4.40;65.30
37974;DHT22;23796;51.458;7.000;2023-04-03T08:32:25;4.40;65.70
37974;DHT22;23796;51.458;7.000;2023-04-03T08:34:50;4.40;65.60
37974;DHT22;23796;51.458;7.000;2023-04-03T08:37:19;4.40;64.50
37974;DHT22;23796;51.458;7.000;2023-04-03T08:39:45;4.40;65.40
37974;DHT22;23796;51.458;7.000;2023-04-03T08:45:42;4.60;62.20
37974;DHT22;23796;51.458;7.000;2023-04-03T08:50:51;4.70;61.20
37974;DHT22;23796;51.458;7.000;2023-04-03T08:53:21;4.80;60.00
37974;DHT22;23796;51.458;7.000;2023-04-03T08:55:49;4.90;59.60
37974;DHT22;23796;51.458;7.000;2023-04-03T09:01:01;5.10;58.90
37974;DHT22;23796;51.458;7.000;2023-04-03T09:03:30;5.30;58.60
37974;DHT22;23796;51.458;7.000;2023-04-03T09:08:49;5.90;56.80
37974;DHT22;23796;51.458;7.000;2023-04-03T09:16:57;5.70;56.80
37974;DHT22;23796;51.458;7.000;2023-04-03T09:22:31;5.60;56.00
37974;DHT22;23796;51.458;7.000;2023-04-03T09:25:15;5.70;54.60
37974;DHT22;23796;51.458;7.000;2023-04-03T09:27:42;5.80;54.70
37974;DHT22;23796;51.458;7.000;2023-04-03T09:30:15;5.80;53.70
37974;DHT22;23796;51.458;7.000;2023-04-03T09:32:41;5.80;52.90
37974;DHT22;23796;51.458;7.000;2023-04-03T09:37:44;5.90;52.60
37974;DHT22;23796;51.458;7.000;2023-04-03T09:42:52;6.10;51.70
37974;DHT22;23796;51.458;7.000;2023-04-03T09:45:37;6.20;50.90
37974;DHT22;23796;51.458;7.000;2023-04-03T09:56:29;6.40;48.30
37974;DHT22;23796;51.458;7.000;2023-04-03T10:04:20;6.60;46.20
37974;DHT22;23796;51.458;7.000;2023-04-03T10:06:56;6.60;47.10
37974;DHT22;23796;51.458;7.000;2023-04-03T10:09:26;6.60;47.90
37974;DHT22;23796;51.458;7.000;2023-04-03T10:14:29;6.70;48.10
37974;DHT22;23796;51.458;7.000;2023-04-03T10:31:08;7.00;47.90
37974;DHT22;23796;51.458;7.000;2023-04-03T10:36:43;7.20;48.30
37974;DHT22;23796;51.458;7.000;2023-04-03T10:52:17;7.50;48.80
37974;DHT22;23796;51.458;7.000;2023-04-03T10:54:50;7.50;48.70
37974;DHT22;23796;51.458;7.000;2023-04-03T10:57:24;7.60;47.70
37974;DHT22;23796;51.458;7.000;2023-04-03T10:59:51;7.50;48.50
37974;DHT22;23796;51.458;7.000;2023-04-03T11:02:35;7.50;48.80
37974;DHT22;23796;51.458;7.000;2023-04-03T11:05:13;7.40;48.70
37974;DHT22;23796;51.458;7.000;2023-04-03T11:07:48;7.50;49.10
37974;DHT22;23796;51.458;7.000;2023-04-03T11:10:23;7.60;48.60
37974;DHT22;23796;51.458;7.000;2023-04-03T11:15:33;7.80;49.30
37974;DHT22;23796;51.458;7.000;2023-04-03T11:18:10;7.70;49.00
37974;DHT22;23796;51.458;7.000;2023-04-03T11:20:38;7.60;49.10
37974;DHT22;23796;51.458;7.000;2023-04-03T11:23:21;7.70;48.80
37974;DHT22;23796;51.458;7.000;2023-04-03T11:25:51;7.80;49.10
37974;DHT22;23796;51.458;7.000;2023-04-03T11:28:20;7.80;48.80
37974;DHT22;23796;51.458;7.000;2023-04-03T11:31:00;8.00;48.70
37974;DHT22;23796;51.458;7.000;2023-04-03T11:33:47;8.10;48.80
37974;DHT22;23796;51.458;7.000;2023-04-03T11:36:24;8.20;48.20
37974;DHT22;23796;51.458;7.000;2023-04-03T11:38:54;8.10;47.00
37974;DHT22;23796;51.458;7.000;2023-04-03T11:41:33;8.10;47.40
37974;DHT22;23796;51.458;7.000;2023-04-03T11:44:06;8.20;47.90
37974;DHT22;23796;51.458;7.000;2023-04-03T11:46:57;8.30;46.60
37974;DHT22;23796;51.458;7.000;2023-04-03T12:05:50;8.50;45.60
37974;DHT22;23796;51.458;7.000;2023-04-03T12:31:50;8.80;45.50
37974;DHT22;23796;51.458;7.000;2023-04-03T12:37:09;8.90;44.70
37974;DHT22;23796;51.458;7.000;2023-04-03T12:47:42;9.10;45.00
37974;DHT22;23796;51.458;7.000;2023-04-03T12:50:24;9.20;45.00
37974;DHT22;23796;51.458;7.000;2023-04-03T12:53:35;9.20;44.70
37974;DHT22;23796;51.458;7.000;2023-04-03T12:55:43;9.20;44.30
37974;DHT22;23796;51.458;7.000;2023-04-03T13:00:45;9.00;43.80
37974;DHT22;23796;51.458;7.000;2023-04-03T13:03:38;9.00;43.90
37974;DHT22;23796;51.458;7.000;2023-04-03T13:06:04;9.00;43.30
37974;DHT22;23796;51.458;7.000;2023-04-03T13:08:31;9.00;44.00
37974;DHT22;23796;51.458;7.000;2023-04-03T13:11:06;9.00;43.10
37974;DHT22;23796;51.458;7.000;2023-04-03T13:13:33;9.00;43.50
37974;DHT22;23796;51.458;7.000;2023-04-03T13:15:59;9.00;43.90
37974;DHT22;23796;51.458;7.000;2023-04-03T13:18:32;8.90;44.10
37974;DHT22;23796;51.458;7.000;2023-04-03T13:21:05;9.00;43.90
37974;DHT22;23796;51.458;7.000;2023-04-03T13:23:32;9.00;44.30
37974;DHT22;23796;51.458;7.000;2023-04-03T13:26:02;9.00;43.50
37974;DHT22;23796;51.458;7.000;2023-04-03T13:28:32;9.10;44.20
37974;DHT22;23796;51.458;7.000;2023-04-03T13:33:35;9.30;44.20
37974;DHT22;23796;51.458;7.000;2023-04-03T13:36:29;9.40;44.00
37974;DHT22;23796;51.458;7.000;2023-04-03T13:39:22;9.40;43.80
37974;DHT22;23796;51.458;7.000;2023-04-03T13:41:58;9.30;43.50
37974;DHT22;23796;51.458;7.000;2023-04-03T13:44:42;9.30;43.50
37974;DHT22;23796;51.458;7.000;2023-04-03T13:49:41;9.20;43.80
37974;DHT22;23796;51.458;7.000;2023-04-03T13:52:28;9.30;43.90
37974;DHT22;23796;51.458;7.000;2023-04-03T13:54:58;9.30;44.10
37974;DHT22;23796;51.458;7.000;2023-04-03T13:57:24;9.30;44.20
37974;DHT22;23796;51.458;7.000;2023-04-03T13:59:51;9.40;43.90
37974;DHT22;23796;51.458;7.000;2023-04-03T14:02:28;9.30;43.90
37974;DHT22;23796;51.458;7.000;2023-04-03T14:04:57;9.30;44.10
37974;DHT22;23796;51.458;7.000;2023-04-03T14:07:25;9.30;43.90
37974;DHT22;23796;51.458;7.000;2023-04-03T14:09:52;9.30;44.00
37974;DHT22;23796;51.458;7.000;2023-04-03T14:12:20;9.40;44.10
37974;DHT22;23796;51.458;7.000;2023-04-03T14:14:47;9.30;44.20
37974;DHT22;23796;51.458;7.000;2023-04-03T14:17:18;9.30;44.90
37974;DHT22;23796;51.458;7.000;2023-04-03T14:19:45;9.40;44.50
37974;DHT22;23796;51.458;7.000;2023-04-03T14:22:27;9.40;44.70
37974;DHT22;23796;51.458;7.000;2023-04-03T14:24:53;9.40;44.10
37974;DHT22;23796;51.458;7.000;2023-04-03T14:27:30;9.20;44.20
37974;DHT22;23796;51.458;7.000;2023-04-03T14:29:59;9.20;44.90
37974;DHT22;23796;51.458;7.000;2023-04-03T14:32:25;9.20;45.50
37974;DHT22;23796;51.458;7.000;2023-04-03T14:34:54;9.30;45.60
37974;DHT22;23796;51.458;7.000;2023-04-03T14:37:23;9.30;45.00
37974;DHT22;23796;51.458;7.000;2023-04-03T14:39:53;9.30;45.00
37974;DHT22;23796;51.458;7.000;2023-04-03T14:42:22;9.20;45.50
37974;DHT22;23796;51.458;7.000;2023-04-03T14:44:48;9.20;46.00
37974;DHT22;23796;51.458;7.000;2023-04-03T14:47:17;9.20;46.00
37974;DHT22;23796;51.458;7.000;2023-04-03T14:49:46;9.30;46.10
37974;DHT22;23796;51.458;7.000;2023-04-03T14:52:34;9.30;46.00
37974;DHT22;23796;51.458;7.000;2023-04-03T14:55:00;9.20;45.90
37974;DHT22;23796;51.458;7.000;2023-04-03T14:57:28;9.20;45.70
37974;DHT22;23796;51.458;7.000;2023-04-03T14:59:54;9.20;45.80
37974;DHT22;23796;51.458;7.000;2023-04-03T15:02:36;9.20;45.80
37974;DHT22;23796;51.458;7.000;2023-04-03T15:05:10;9.20;44.70
37974;DHT22;23796;51.458;7.000;2023-04-03T15:07:39;9.20;45.20
37974;DHT22;23796;51.458;7.000;2023-04-03T15:12:40;9.10;46.30
37974;DHT22;23796;51.458;7.000;2023-04-03T15:15:06;9.10;46.30
37974;DHT22;23796;51.458;7.000;2023-04-03T15:17:31;9.10;45.80
37974;DHT22;23796;51.458;7.000;2023-04-03T15:19:58;9.10;45.70
37974;DHT22;23796;51.458;7.000;2023-04-03T15:22:24;9.00;45.80
37974;DHT22;23796;51.458;7.000;2023-04-03T15:24:49;9.00;46.00
37974;DHT22;23796;51.458;7.000;2023-04-03T15:27:17;9.00;45.80
37974;DHT22;23796;51.458;7.000;2023-04-03T15:29:43;8.90;46.00
37974;DHT22;23796;51.458;7.000;2023-04-03T15:32:10;8.80;46.10
37974;DHT22;23796;51.458;7.000;2023-04-03T15:34:37;8.80;46.00
37974;DHT22;23796;51.458;7.000;2023-04-03T15:37:02;8.80;45.90
37974;DHT22;23796;51.458;7.000;2023-04-03T15:39:28;8.80;46.40
37974;DHT22;23796;51.458;7.000;2023-04-03T15:41:57;8.80;46.60
37974;DHT22;23796;51.458;7.000;2023-04-03T15:44:33;8.80;46.90
37974;DHT22;23796;51.458;7.000;2023-04-03T15:47:04;8.80;47.10
37974;DHT22;23796;51.458;7.000;2023-04-03T15:49:32;8.80;47.30
37974;DHT22;23796;51.458;7.000;2023-04-03T15:52:03;8.80;47.40
37974;DHT22;23796;51.458;7.000;2023-04-03T15:54:29;8.90;47.20
37974;DHT22;23796;51.458;7.000;2023-04-03T15:56:55;8.90;46.90
37974;DHT22;23796;51.458;7.000;2023-04-03T15:59:21;8.90;46.70
37974;DHT22;23796;51.458;7.000;2023-04-03T16:01:49;8.80;46.90
37974;DHT22;23796;51.458;7.000;2023-04-03T16:04:18;8.80;46.90
37974;DHT22;23796;51.458;7.000;2023-04-03T16:06:46;8.80;45.90
37974;DHT22;23796;51.458;7.000;2023-04-03T16:09:11;8.70;46.20
37974;DHT22;23796;51.458;7.000;2023-04-03T16:11:40;8.60;46.60
37974;DHT22;23796;51.458;7.000;2023-04-03T16:14:07;8.50;46.80
37974;DHT22;23796;51.458;7.000;2023-04-03T16:16:33;8.50;47.00
37974;DHT22;23796;51.458;7.000;2023-04-03T16:18:58;8.40;47.50
37974;DHT22;23796;51.458;7.000;2023-04-03T16:21:27;8.50;47.80
37974;DHT22;23796;51.458;7.000;2023-04-03T16:23:53;8.50;48.00
37974;DHT22;23796;51.458;7.000;2023-04-03T16:26:21;8.50;47.90
37974;DHT22;23796;51.458;7.000;2023-04-03T16:28:46;8.50;47.60
37974;DHT22;23796;51.458;7.000;2023-04-03T16:31:12;8.50;47.10
37974;DHT22;23796;51.458;7.000;2023-04-03T16:33:38;8.50;47.10
37974;DHT22;23796;51.458;7.000;2023-04-03T16:36:04;8.50;46.70
37974;DHT22;23796;51.458;7.000;2023-04-03T16:38:30;8.60;46.70
37974;DHT22;23796;51.458;7.000;2023-04-03T16:41:00;8.60;47.00
37974;DHT22;23796;51.458;7.000;2023-04-03T16:43:32;8.70;47.00
37974;DHT22;23796;51.458;7.000;2023-04-03T16:46:00;8.80;46.70
37974;DHT22;23796;51.458;7.000;2023-04-03T16:48:30;8.80;47.00
37974;DHT22;23796;51.458;7.000;2023-04-03T16:50:55;8.90;46.70
37974;DHT22;23796;51.458;7.000;2023-04-03T16:53:22;8.90;46.60
37974;DHT22;23796;51.458;7.000;2023-04-03T16:55:50;9.10;46.40
37974;DHT22;23796;51.458;7.000;2023-04-03T16:58:16;9.10;46.20
37974;DHT22;23796;51.458;7.000;2023-04-03T17:00:42;9.10;46.70
37974;DHT22;23796;51.458;7.000;2023-04-03T17:03:08;9.20;46.00
37974;DHT22;23796;51.458;7.000;2023-04-03T17:05:33;9.30;45.20
37974;DHT22;23796;51.458;7.000;2023-04-03T17:07:59;9.40;44.80
37974;DHT22;23796;51.458;7.000;2023-04-03T17:10:26;9.50;44.60
37974;DHT22;23796;51.458;7.000;2023-04-03T17:12:54;9.50;44.30
37974;DHT22;23796;51.458;7.000;2023-04-03T17:15:20;9.50;44.60
37974;DHT22;23796;51.458;7.000;2023-04-03T17:17:47;9.30;44.90
37974;DHT22;23796;51.458;7.000;2023-04-03T17:20:14;9.00;45.70
37974;DHT22;23796;51.458;7.000;2023-04-03T17:22:40;8.80;46.10
37974;DHT22;23796;51.458;7.000;2023-04-03T17:25:06;8.60;46.10
37974;DHT22;23796;51.458;7.000;2023-04-03T17:27:32;8.50;46.90
37974;DHT22;23796;51.458;7.000;2023-04-03T17:29:58;8.30;47.50
37974;DHT22;23796;51.458;7.000;2023-04-03T17:32:24;8.20;47.00
37974;DHT22;23796;51.458;7.000;2023-04-03T17:34:50;8.10;47.10
37974;DHT22;23796;51.458;7.000;2023-04-03T17:37:16;8.00;47.50
37974;DHT22;23796;51.458;7.000;2023-04-03T17:39:41;7.90;48.10
37974;DHT22;23796;51.458;7.000;2023-04-03T17:42:09;7.80;48.30
37974;DHT22;23796;51.458;7.000;2023-04-03T17:44:35;7.80;48.50
37974;DHT22;23796;51.458;7.000;2023-04-03T17:47:00;7.80;48.90
37974;DHT22;23796;51.458;7.000;2023-04-03T17:49:29;7.70;48.80
37974;DHT22;23796;51.458;7.000;2023-04-03T17:51:55;7.60;48.60
37974;DHT22;23796;51.458;7.000;2023-04-03T17:54:21;7.60;48.10
37974;DHT22;23796;51.458;7.000;2023-04-03T17:56:47;7.50;48.40
37974;DHT22;23796;51.458;7.000;2023-04-03T17:59:16;7.40;48.50
37974;DHT22;23796;51.458;7.000;2023-04-03T18:01:44;7.30;48.70
37974;DHT22;23796;51.458;7.000;2023-04-03T18:04:12;7.30;48.80
37974;DHT22;23796;51.458;7.000;2023-04-03T18:06:44;7.20;49.00
37974;DHT22;23796;51.458;7.000;2023-04-03T18:09:13;7.10;49.00
37974;DHT22;23796;51.458;7.000;2023-04-03T18:11:40;7.10;49.30
37974;DHT22;23796;51.458;7.000;2023-04-03T18:14:07;7.10;49.40
37974;DHT22;23796;51.458;7.000;2023-04-03T18:16:33;7.00;49.70
37974;DHT22;23796;51.458;7.000;2023-04-03T18:18:59;6.90;49.90
37974;DHT22;23796;51.458;7.000;2023-04-03T18:21:24;6.90;50.10
37974;DHT22;23796;51.458;7.000;2023-04-03T18:23:54;6.90;50.10